createdAt,value
2023-02-03T00:01:15.059Z,14.40
2023-02-03T00:03:52.133Z,16.30
2023-02-03T00:06:29.598Z,17.70
2023-02-03T00:09:07.193Z,22.00
2023-02-03T00:11:43.640Z,26.00
2023-02-03T00:14:19.554Z,27.20
2023-02-03T00:16:56.254Z,18.40
2023-02-03T00:19:35.771Z,15.60
2023-02-03T00:22:12.132Z,17.40
2023-02-03T00:24:49.521Z,19.30
2023-02-03T00:27:27.111Z,18.20
2023-02-03T00:30:02.930Z,16.60
2023-02-03T00:32:39.242Z,17.60
2023-02-03T00:35:17.303Z,19.50
2023-02-03T00:37:58.522Z,22.10
2023-02-03T00:40:35.491Z,20.10
2023-02-03T00:43:12.076Z,21.70
2023-02-03T00:45:48.260Z,24.20
2023-02-03T00:48:25.050Z,26.50
2023-02-03T00:51:01.591Z,20.40
2023-02-03T00:53:37.549Z,24.80
2023-02-03T00:56:14.947Z,27.80
2023-02-03T00:58:50.789Z,24.60
2023-02-03T01:01:26.829Z,24.30
2023-02-03T01:04:04.753Z,27.00
2023-02-03T01:06:43.585Z,29.10
2023-02-03T01:09:19.596Z,28.40
2023-02-03T01:11:56.063Z,32.80
2023-02-03T01:14:32.663Z,28.60
2023-02-03T01:17:08.824Z,29.70
2023-02-03T01:19:44.975Z,29.90
2023-02-03T01:22:22.011Z,26.60
2023-02-03T01:24:59.076Z,24.50
2023-02-03T01:27:36.861Z,26.00
2023-02-03T01:30:20.070Z,23.70
2023-02-03T01:32:56.500Z,24.30
2023-02-03T01:35:32.444Z,27.70
2023-02-03T01:38:09.083Z,29.70
2023-02-03T01:40:51.953Z,28.20
2023-02-03T01:43:40.391Z,26.40
2023-02-03T01:46:37.356Z,27.60
2023-02-03T01:49:20.741Z,27.40
2023-02-03T01:51:58.569Z,25.60
2023-02-03T01:54:40.896Z,31.40
2023-02-03T01:57:23.146Z,27.00
2023-02-03T02:00:05.515Z,26.70
2023-02-03T02:02:52.578Z,28.90
2023-02-03T02:05:40.676Z,41.10
2023-02-03T02:08:18.521Z,47.00
2023-02-03T02:10:55.765Z,35.30
2023-02-03T02:13:35.435Z,34.70
2023-02-03T02:16:22.251Z,35.60
2023-02-03T02:19:43.934Z,37.80
2023-02-03T02:22:33.214Z,30.70
2023-02-03T02:26:03.918Z,36.50
2023-02-03T02:29:38.910Z,38.00
2023-02-03T02:32:26.239Z,34.40
2023-02-03T02:35:19.011Z,41.30
2023-02-03T02:38:05.955Z,35.90
2023-02-03T02:40:53.768Z,38.70
2023-02-03T02:43:39.161Z,40.90
2023-02-03T02:46:21.611Z,36.70
2023-02-03T02:49:04.664Z,38.50
2023-02-03T02:51:42.156Z,39.50
2023-02-03T02:54:24.616Z,38.30
2023-02-03T02:57:06.184Z,51.80
2023-02-03T02:59:42.738Z,48.30
2023-02-03T03:02:19.767Z,40.90
2023-02-03T03:04:57.626Z,35.50
2023-02-03T03:07:38.234Z,40.90
2023-02-03T03:10:25.145Z,39.10
2023-02-03T03:13:06.497Z,34.50
2023-02-03T03:15:47.052Z,35.70
2023-02-03T03:18:31.363Z,34.70
2023-02-03T03:21:10.965Z,43.80
2023-02-03T03:23:53.735Z,43.20
2023-02-03T03:26:38.755Z,47.40
2023-02-03T03:29:24.374Z,46.30
2023-02-03T03:32:02.374Z,56.60
2023-02-03T03:34:40.627Z,64.20
2023-02-03T03:37:26.899Z,54.70
2023-02-03T03:40:10.766Z,51.20
2023-02-03T03:42:52.778Z,56.90
2023-02-03T03:45:41.277Z,55.30
2023-02-03T03:48:24.728Z,49.40
2023-02-03T03:51:09.053Z,47.70
2023-02-03T03:53:50.335Z,49.60
2023-02-03T03:56:34.638Z,51.90
2023-02-03T03:59:15.164Z,46.00
2023-02-03T04:01:51.618Z,39.70
2023-02-03T04:04:29.574Z,45.00
2023-02-03T04:07:05.802Z,41.90
2023-02-03T04:09:43.492Z,45.20
2023-02-03T04:12:29.070Z,39.90
2023-02-03T04:15:06.833Z,49.10
2023-02-03T04:17:43.547Z,66.60
2023-02-03T04:20:22.693Z,76.50
2023-02-03T04:22:59.904Z,71.30
2023-02-03T04:25:36.182Z,59.30
2023-02-03T04:28:12.647Z,64.20
2023-02-03T04:30:49.703Z,65.40
2023-02-03T04:33:26.089Z,56.30
2023-02-03T04:36:02.428Z,60.00
2023-02-03T04:38:38.681Z,56.20
2023-02-03T04:41:15.560Z,57.20
2023-02-03T04:43:53.011Z,54.70
2023-02-03T04:46:29.664Z,61.20
2023-02-03T04:49:05.941Z,69.60
2023-02-03T04:51:43.431Z,66.40
2023-02-03T04:54:20.073Z,73.30
2023-02-03T04:56:57.399Z,79.30
2023-02-03T04:59:34.467Z,72.40
2023-02-03T05:02:12.167Z,66.40
2023-02-03T05:04:49.233Z,73.40
2023-02-03T05:07:25.339Z,69.50
2023-02-03T05:10:02.258Z,66.50
2023-02-03T05:12:39.016Z,58.40
2023-02-03T05:15:19.047Z,58.70
2023-02-03T05:17:57.435Z,70.10
2023-02-03T05:20:34.393Z,59.20
2023-02-03T05:23:11.073Z,64.80
2023-02-03T05:25:48.379Z,68.80
2023-02-03T05:28:24.354Z,60.80
2023-02-03T05:31:02.441Z,58.10
2023-02-03T05:33:37.963Z,54.40
2023-02-03T05:36:19.063Z,57.50
2023-02-03T05:38:55.685Z,56.00
2023-02-03T05:41:49.400Z,53.40
2023-02-03T05:44:28.139Z,59.20
2023-02-03T05:47:05.873Z,59.20
2023-02-03T05:49:43.622Z,50.30
2023-02-03T05:52:20.079Z,47.50
2023-02-03T05:54:56.740Z,50.10
2023-02-03T05:57:34.093Z,58.60
2023-02-03T06:00:17.802Z,49.30
2023-02-03T06:03:00.807Z,63.90
2023-02-03T06:05:41.524Z,75.20
2023-02-03T06:08:18.942Z,68.30
2023-02-03T06:10:55.152Z,67.00
2023-02-03T06:13:31.901Z,68.40
2023-02-03T06:16:09.565Z,66.30
2023-02-03T06:18:46.434Z,41.90
2023-02-03T06:21:24.324Z,49.40
2023-02-03T06:24:00.744Z,66.20
2023-02-03T06:26:36.937Z,74.40
2023-02-03T06:29:13.460Z,80.60
2023-02-03T06:31:50.960Z,78.80
2023-02-03T06:34:28.244Z,73.30
2023-02-03T06:37:04.921Z,79.70
2023-02-03T06:39:42.514Z,74.10
2023-02-03T06:42:19.289Z,70.00
2023-02-03T06:44:56.348Z,69.10
2023-02-03T06:47:33.089Z,62.20
2023-02-03T06:50:10.947Z,68.00
2023-02-03T06:52:48.588Z,75.30
2023-02-03T06:55:25.357Z,72.10
2023-02-03T06:58:01.560Z,68.60
2023-02-03T07:00:37.767Z,66.30
2023-02-03T07:03:14.148Z,73.00
2023-02-03T07:05:50.485Z,68.50
2023-02-03T07:08:27.429Z,70.30
2023-02-03T07:11:03.683Z,70.30
2023-02-03T07:13:41.492Z,65.50
2023-02-03T07:16:18.472Z,75.30
2023-02-03T07:18:56.155Z,77.60
2023-02-03T07:21:32.770Z,76.30
2023-02-03T07:24:10.925Z,75.40
2023-02-03T07:26:47.344Z,68.00
2023-02-03T07:29:24.115Z,63.50
2023-02-03T07:32:03.087Z,69.40
2023-02-03T07:34:39.990Z,72.10
2023-02-03T07:37:17.245Z,72.90
2023-02-03T07:39:55.145Z,68.90
2023-02-03T07:42:32.748Z,73.20
2023-02-03T07:45:13.112Z,66.00
2023-02-03T07:47:50.886Z,64.20
2023-02-03T07:50:28.342Z,89.10
2023-02-03T07:53:04.721Z,83.50
2023-02-03T07:55:42.851Z,77.90
2023-02-03T07:58:20.068Z,83.50
2023-02-03T08:00:57.295Z,74.10
2023-02-03T08:03:33.750Z,69.10
2023-02-03T08:06:11.859Z,76.80
2023-02-03T08:08:48.413Z,68.50
2023-02-03T08:11:26.226Z,64.30
2023-02-03T08:14:03.720Z,69.20
2023-02-03T08:16:41.008Z,69.40
2023-02-03T08:19:18.093Z,55.30
2023-02-03T08:21:54.503Z,61.30
2023-02-03T08:24:31.108Z,88.40
2023-02-03T08:27:08.581Z,89.50
2023-02-03T08:29:46.177Z,82.50
2023-02-03T08:32:25.891Z,79.20
2023-02-03T08:35:02.586Z,67.50
2023-02-03T08:37:39.484Z,71.90
2023-02-03T08:40:19.113Z,73.20
2023-02-03T08:42:54.986Z,71.20
2023-02-03T08:45:32.558Z,71.20
2023-02-03T08:48:09.631Z,75.30
2023-02-03T08:50:53.206Z,77.20
2023-02-03T08:53:29.881Z,67.80
2023-02-03T08:56:10.571Z,99.70
2023-02-03T08:58:47.876Z,96.00
2023-02-03T09:01:25.389Z,90.80
2023-02-03T09:04:04.413Z,88.50
2023-02-03T09:06:40.355Z,84.00
2023-02-03T09:09:18.235Z,81.90
2023-02-03T09:12:00.947Z,78.30
2023-02-03T09:14:39.016Z,81.10
2023-02-03T09:17:15.269Z,76.20
2023-02-03T09:19:51.884Z,73.60
2023-02-03T09:22:29.265Z,81.90
2023-02-03T09:25:05.303Z,64.20
2023-02-03T09:27:42.814Z,68.20
2023-02-03T09:30:24.801Z,76.90
2023-02-03T09:33:01.913Z,99.80
2023-02-03T09:35:38.575Z,97.70
2023-02-03T09:38:15.909Z,91.70
2023-02-03T09:41:10.624Z,89.50
2023-02-03T09:43:55.335Z,90.50
2023-02-03T09:46:39.012Z,81.90
2023-02-03T09:49:27.157Z,82.30
2023-02-03T09:52:12.577Z,87.70
2023-02-03T09:54:56.188Z,78.50
2023-02-03T09:57:35.024Z,80.20
2023-02-03T10:00:30.162Z,78.20
2023-02-03T10:03:17.990Z,77.80
2023-02-03T10:06:23.243Z,83.10
2023-02-03T10:09:29.444Z,114.50
2023-02-03T10:12:40.031Z,106.60
2023-02-03T10:16:06.917Z,105.70
2023-02-03T10:18:52.915Z,100.70
2023-02-03T10:21:41.935Z,99.70
2023-02-03T10:24:28.096Z,97.80
2023-02-03T10:27:04.597Z,90.90
2023-02-03T10:29:47.133Z,103.70
2023-02-03T10:32:24.152Z,105.10
2023-02-03T10:35:00.388Z,109.60
2023-02-03T10:37:41.936Z,80.20
2023-02-03T10:40:23.552Z,87.60
2023-02-03T10:43:18.114Z,89.50
2023-02-03T10:45:54.714Z,108.00
2023-02-03T10:48:32.714Z,122.60
2023-02-03T10:51:14.751Z,119.40
2023-02-03T10:53:53.744Z,101.60
2023-02-03T10:56:35.284Z,108.20
2023-02-03T10:59:29.930Z,114.80
2023-02-03T11:02:14.570Z,112.30
2023-02-03T11:04:51.170Z,116.90
2023-02-03T11:07:35.695Z,112.50
2023-02-03T11:10:47.151Z,112.10
2023-02-03T11:13:28.507Z,113.10
2023-02-03T11:16:08.389Z,101.40
2023-02-03T11:18:57.887Z,109.70
2023-02-03T11:21:44.912Z,111.70
2023-02-03T11:24:27.029Z,110.50
2023-02-03T11:27:08.737Z,113.60
2023-02-03T11:29:50.431Z,110.20
2023-02-03T11:32:36.076Z,107.40
2023-02-03T11:35:24.338Z,119.80
2023-02-03T11:38:03.576Z,110.00
2023-02-03T11:40:41.809Z,117.20
2023-02-03T11:43:24.843Z,112.00
2023-02-03T11:46:08.092Z,112.70
2023-02-03T11:48:59.406Z,108.50
2023-02-03T11:51:48.519Z,108.60
2023-02-03T11:54:42.998Z,118.80
2023-02-03T11:57:41.267Z,116.40
2023-02-03T12:00:34.094Z,104.40
2023-02-03T12:04:16.081Z,106.70
2023-02-03T12:07:22.059Z,108.10
2023-02-03T12:10:11.505Z,114.80
2023-02-03T12:13:07.823Z,118.50
2023-02-03T12:16:18.336Z,112.50
2023-02-03T12:19:13.905Z,99.50
2023-02-03T12:21:59.344Z,105.60
2023-02-03T12:24:55.219Z,109.30
2023-02-03T12:27:50.142Z,109.40
2023-02-03T12:30:31.202Z,98.70
2023-02-03T12:33:23.657Z,98.80
2023-02-03T12:36:08.289Z,106.80
2023-02-03T12:38:53.009Z,117.10
2023-02-03T12:41:36.616Z,111.20
2023-02-03T12:44:23.085Z,124.50
2023-02-03T12:47:10.648Z,121.20
2023-02-03T12:49:53.730Z,111.50
2023-02-03T12:52:38.813Z,118.70
2023-02-03T12:55:30.959Z,124.60
2023-02-03T12:58:14.157Z,122.00
2023-02-03T13:00:59.870Z,116.20
2023-02-03T13:03:43.942Z,119.10
2023-02-03T13:06:29.556Z,116.90
2023-02-03T13:09:25.093Z,120.90
2023-02-03T13:12:11.414Z,112.30
2023-02-03T13:14:53.377Z,123.40
2023-02-03T13:17:34.420Z,113.40
2023-02-03T13:20:21.738Z,114.80
2023-02-03T13:22:57.557Z,123.80
2023-02-03T13:25:51.902Z,121.10
2023-02-03T13:28:51.358Z,120.70
2023-02-03T13:31:50.430Z,110.00
2023-02-03T13:35:08.130Z,104.50
2023-02-03T13:38:11.619Z,114.60
2023-02-03T13:41:02.322Z,116.30
2023-02-03T13:43:43.959Z,136.30
2023-02-03T13:46:32.059Z,137.50
2023-02-03T13:49:12.964Z,132.10
2023-02-03T13:51:53.567Z,128.70
2023-02-03T13:54:38.909Z,129.80
2023-02-03T13:57:34.706Z,130.30
2023-02-03T14:00:53.071Z,129.20
2023-02-03T14:03:49.532Z,121.50
2023-02-03T14:07:02.307Z,104.90
2023-02-03T14:10:08.757Z,114.40
2023-02-03T14:13:02.557Z,98.30
2023-02-03T14:15:40.021Z,100.80
2023-02-03T14:18:48.490Z,108.80
2023-02-03T14:21:27.653Z,114.80
2023-02-03T14:24:12.989Z,104.90
2023-02-03T14:26:52.746Z,110.20
2023-02-03T14:29:44.655Z,112.30
2023-02-03T14:32:21.992Z,99.50
2023-02-03T14:34:59.445Z,111.60
2023-02-03T14:37:38.298Z,133.10
2023-02-03T14:40:45.141Z,129.30
2023-02-03T14:43:46.262Z,123.50
2023-02-03T14:47:15.423Z,140.20
2023-02-03T14:50:24.700Z,133.10
2023-02-03T14:53:30.079Z,118.90
2023-02-03T14:56:25.172Z,122.00
2023-02-03T14:59:12.595Z,126.20
2023-02-03T15:02:21.550Z,110.40
2023-02-03T15:05:39.265Z,115.50
2023-02-03T15:08:53.315Z,115.80
2023-02-03T15:11:46.173Z,111.60
2023-02-03T15:14:32.997Z,116.30
2023-02-03T15:17:25.442Z,144.00
2023-02-03T15:20:02.530Z,150.10
2023-02-03T15:22:44.836Z,146.20
2023-02-03T15:25:28.748Z,163.30
2023-02-03T15:28:24.578Z,150.40
2023-02-03T15:31:09.412Z,139.90
2023-02-03T15:33:47.563Z,144.70
2023-02-03T15:36:29.002Z,135.30
2023-02-03T15:39:25.990Z,110.70
2023-02-03T15:42:07.199Z,126.30
2023-02-03T15:44:56.135Z,122.00
2023-02-03T15:47:42.085Z,140.80
2023-02-03T15:50:36.652Z,146.00
2023-02-03T15:53:26.220Z,151.10
2023-02-03T15:56:07.318Z,142.60
2023-02-03T15:58:52.846Z,142.20
2023-02-03T16:01:30.707Z,138.00
2023-02-03T16:04:14.821Z,136.00
2023-02-03T16:06:55.801Z,141.70
2023-02-03T16:09:42.310Z,147.50
2023-02-03T16:12:28.298Z,139.00
2023-02-03T16:15:07.013Z,142.10
2023-02-03T16:17:44.034Z,127.80
2023-02-03T16:20:33.546Z,134.70
2023-02-03T16:23:23.851Z,147.40
2023-02-03T16:26:36.453Z,149.00
2023-02-03T16:29:38.487Z,146.10
2023-02-03T16:32:43.588Z,144.20
2023-02-03T16:35:37.191Z,140.10
2023-02-03T16:38:39.400Z,140.30
2023-02-03T16:41:39.376Z,132.70
2023-02-03T16:44:34.310Z,140.80
2023-02-03T16:47:42.673Z,137.10
2023-02-03T16:50:42.357Z,145.70
2023-02-03T16:53:22.585Z,147.20
2023-02-03T16:56:01.286Z,118.40
2023-02-03T16:58:37.534Z,126.10
2023-02-03T17:01:15.833Z,143.40
2023-02-03T17:03:53.444Z,134.40
2023-02-03T17:06:29.968Z,134.30
2023-02-03T17:09:07.497Z,136.90
2023-02-03T17:11:44.710Z,130.80
2023-02-03T17:14:20.568Z,138.10
2023-02-03T17:16:57.359Z,153.50
2023-02-03T17:19:33.812Z,154.70
2023-02-03T17:22:10.595Z,151.60
2023-02-03T17:24:48.215Z,141.80
2023-02-03T17:27:25.137Z,142.00
2023-02-03T17:30:01.786Z,142.60
2023-02-03T17:32:38.687Z,140.70
2023-02-03T17:35:16.741Z,139.10
2023-02-03T17:37:53.389Z,137.80
2023-02-03T17:55:01.953Z,137.20
2023-02-03T17:57:41.749Z,134.00
2023-02-03T18:00:25.392Z,140.80
2023-02-03T18:03:02.596Z,134.10
2023-02-03T18:05:39.832Z,140.40
2023-02-03T18:08:20.303Z,131.20
2023-02-03T18:10:57.360Z,134.80
2023-02-03T18:13:34.503Z,153.60
2023-02-03T18:16:13.445Z,153.50
2023-02-03T18:18:49.249Z,145.50
2023-02-03T18:21:30.110Z,149.60
2023-02-03T18:24:07.242Z,136.10
2023-02-03T18:26:51.895Z,137.80
2023-02-03T18:29:29.034Z,140.10
2023-02-03T18:32:05.533Z,117.10
2023-02-03T18:34:44.178Z,135.80
2023-02-03T18:37:20.463Z,132.70
2023-02-03T18:39:57.828Z,158.80
2023-02-03T18:42:34.364Z,155.80
2023-02-03T18:45:14.025Z,140.40
2023-02-03T18:47:50.639Z,145.40
2023-02-03T18:50:26.955Z,142.00
2023-02-03T18:53:05.778Z,138.60
2023-02-03T18:55:45.544Z,137.90
2023-02-03T18:58:22.374Z,135.20
2023-02-03T19:00:59.203Z,137.50
2023-02-03T19:03:36.180Z,150.90
2023-02-03T19:06:18.774Z,150.90
2023-02-03T19:08:55.010Z,151.30
2023-02-03T19:11:35.162Z,147.10
2023-02-03T19:14:11.131Z,133.70
2023-02-03T19:16:50.809Z,137.90
2023-02-03T19:19:28.761Z,133.00
2023-02-03T19:22:05.642Z,132.20
2023-02-03T19:24:42.011Z,111.40
2023-02-03T19:27:18.817Z,110.20
2023-02-03T19:29:55.889Z,148.10
2023-02-03T19:32:33.215Z,158.40
2023-02-03T19:35:12.824Z,149.90
2023-02-03T19:37:50.169Z,136.60
2023-02-03T19:40:27.842Z,137.40
2023-02-03T19:43:05.054Z,136.90
2023-02-03T19:45:41.865Z,133.20
2023-02-03T19:48:19.121Z,126.70
2023-02-03T19:50:56.855Z,127.50
2023-02-03T19:53:33.876Z,118.40
2023-02-03T19:56:12.913Z,149.10
2023-02-03T19:58:52.731Z,144.40
2023-02-03T20:01:29.750Z,136.80
2023-02-03T20:04:07.573Z,140.80
2023-02-03T20:06:44.782Z,137.00
2023-02-03T20:09:21.264Z,135.90
2023-02-03T20:11:58.319Z,121.20
2023-02-03T20:14:35.108Z,125.80
2023-02-03T20:17:12.237Z,124.70
2023-02-03T20:19:49.089Z,125.50
2023-02-03T20:22:26.092Z,119.00
2023-02-03T20:25:03.264Z,105.80
2023-02-03T20:27:40.091Z,138.70
2023-02-03T20:30:20.844Z,153.50
2023-02-03T20:32:58.180Z,137.30
2023-02-03T20:35:35.192Z,142.60
2023-02-03T20:38:12.369Z,151.20
2023-02-03T20:40:49.508Z,136.40
2023-02-03T20:43:28.058Z,131.80
2023-02-03T20:46:04.996Z,135.80
2023-02-03T20:48:41.491Z,154.20
2023-02-03T20:51:21.339Z,152.90
2023-02-03T20:53:58.792Z,138.40
2023-02-03T20:56:37.096Z,128.10
2023-02-03T20:59:19.270Z,132.90
2023-02-03T21:01:55.873Z,124.40
2023-02-03T21:04:50.446Z,124.50
2023-02-03T21:07:27.202Z,132.10
2023-02-03T21:10:22.336Z,126.80
2023-02-03T21:12:59.600Z,131.20
2023-02-03T21:15:37.058Z,115.40
2023-02-03T21:18:36.153Z,124.70
2023-02-03T21:21:25.134Z,140.10
2023-02-03T21:24:02.593Z,126.40
2023-02-03T21:26:45.664Z,126.00
2023-02-03T21:29:29.572Z,130.90
2023-02-03T21:32:06.989Z,123.50
2023-02-03T21:34:46.980Z,124.70
2023-02-03T21:37:42.734Z,113.20
2023-02-03T21:40:35.000Z,109.00
2023-02-03T21:43:22.047Z,100.50
2023-02-03T21:45:59.027Z,94.00
2023-02-03T21:48:39.397Z,117.20
2023-02-03T21:51:25.028Z,100.40
2023-02-03T21:54:03.882Z,113.20
2023-02-03T21:56:46.415Z,112.00
2023-02-03T21:59:26.519Z,105.80
2023-02-03T22:02:03.766Z,111.10
2023-02-03T22:04:40.909Z,97.50
2023-02-03T22:07:29.271Z,116.80
2023-02-03T22:10:05.812Z,89.40
2023-02-03T22:12:43.224Z,115.20
2023-02-03T22:15:20.455Z,91.40
2023-02-03T22:17:58.044Z,88.50
2023-02-03T22:20:35.117Z,95.40
2023-02-03T22:23:12.625Z,91.00
2023-02-03T22:25:50.575Z,89.00
2023-02-03T22:28:26.953Z,83.40
2023-02-03T22:31:03.070Z,85.10
2023-02-03T22:33:40.486Z,75.20
2023-02-03T22:36:19.819Z,93.60
2023-02-03T22:38:57.164Z,93.10
2023-02-03T22:41:34.624Z,88.90
2023-02-03T22:44:16.364Z,81.30
2023-02-03T22:46:53.804Z,88.70
2023-02-03T22:49:31.407Z,71.90
2023-02-03T22:52:09.120Z,72.90
2023-02-03T22:54:46.533Z,72.50
2023-02-03T22:57:23.375Z,75.90
2023-02-03T23:00:00.425Z,81.60
2023-02-03T23:02:37.378Z,82.90
2023-02-03T23:05:15.984Z,94.50
2023-02-03T23:07:52.030Z,84.30
2023-02-03T23:10:33.804Z,81.30
2023-02-03T23:13:10.761Z,79.30
2023-02-03T23:15:47.690Z,67.10
2023-02-03T23:18:24.558Z,74.80
2023-02-03T23:21:01.956Z,63.90
2023-02-03T23:23:38.830Z,65.80
2023-02-03T23:26:15.652Z,61.50
2023-02-03T23:28:52.742Z,56.70
2023-02-03T23:31:28.249Z,61.40
2023-02-03T23:34:21.649Z,70.60
2023-02-03T23:37:01.670Z,58.10
2023-02-03T23:39:38.539Z,61.60
2023-02-03T23:42:14.845Z,56.90
2023-02-03T23:44:51.436Z,57.80
2023-02-03T23:47:27.952Z,58.10
2023-02-03T23:50:04.781Z,55.10
2023-02-03T23:52:41.973Z,56.70
2023-02-03T23:55:23.963Z,54.60
2023-02-03T23:58:01.538Z,54.40
